Time;durP1;ratioP1;P1;durP2;ratioP2;P2;SDS_P1;SDS_P2;PMS_P1;PMS_P2;Temp;Humidity;BMP_temperature;BMP_pressure;BME280_temperature;BME280_humidity;BME280_pressure;Samples;Min_cycle;Max_cycle;Signal;HPM_P1;HPM_P2
2024/03/01 00:02:10;;;;;;;28.92;17.88;;;7.70;99.90;;;;;;4940047;29;20050;-63
2024/03/01 00:04:37;;;;;;;29.60;17.98;;;7.70;99.90;;;;;;4944812;29;20047;-63
2024/03/01 00:07:04;;;;;;;28.85;17.52;;;7.80;99.90;;;;;;4941337;29;20059;-64
2024/03/01 00:09:32;;;;;;;29.65;17.80;;;7.80;99.90;;;;;;4938834;29;20415;-64
2024/03/01 00:11:59;;;;;;;26.92;16.77;;;7.80;99.90;;;;;;4939501;29;20060;-64
2024/03/01 00:14:26;;;;;;;28.60;17.02;;;7.90;99.90;;;;;;4935378;29;20051;-63
2024/03/01 00:16:52;;;;;;;28.30;15.32;;;7.90;99.90;;;;;;4936720;29;20500;-64
2024/03/01 00:19:19;;;;;;;31.30;17.73;;;8.00;99.90;;;;;;4937713;29;20047;-64
2024/03/01 00:21:46;;;;;;;29.23;17.35;;;8.00;99.90;;;;;;4938366;29;20044;-63
2024/03/01 00:24:13;;;;;;;26.73;16.70;;;8.00;99.90;;;;;;4940513;29;20058;-64
2024/03/01 00:26:47;;;;;;;26.63;15.80;;;8.00;99.90;;;;;;4939261;29;20043;-64
2024/03/01 00:29:14;;;;;;;24.38;16.17;;;8.00;99.90;;;;;;4936662;29;20810;-64
2024/03/01 00:31:41;;;;;;;27.40;16.15;;;8.00;99.90;;;;;;4937955;29;20158;-64
2024/03/01 00:34:08;;;;;;;25.73;16.17;;;8.10;99.90;;;;;;4940202;29;20126;-64
2024/03/01 00:36:34;;;;;;;28.92;16.38;;;8.10;99.90;;;;;;4938291;29;20048;-64
2024/03/01 00:39:01;;;;;;;25.83;16.63;;;8.10;99.90;;;;;;4940784;29;20050;-64
2024/03/01 00:41:28;;;;;;;26.73;16.15;;;8.10;99.90;;;;;;4936233;29;20465;-64
2024/03/01 00:43:55;;;;;;;28.27;16.75;;;8.10;99.90;;;;;;4939913;29;20174;-64
2024/03/01 00:46:22;;;;;;;28.48;16.60;;;8.10;99.90;;;;;;4945242;29;20059;-64
2024/03/01 00:48:53;;;;;;;26.55;16.00;;;8.10;99.90;;;;;;4938324;29;20507;-64
2024/03/01 00:51:20;;;;;;;26.75;16.48;;;8.10;99.90;;;;;;4936500;29;20495;-64
2024/03/01 00:53:47;;;;;;;28.00;16.88;;;8.10;99.90;;;;;;4936422;29;20063;-64
2024/03/01 00:56:14;;;;;;;27.63;17.60;;;8.10;99.90;;;;;;4942633;29;20624;-64
2024/03/01 00:58:41;;;;;;;29.85;17.52;;;8.20;99.90;;;;;;4943628;29;20051;-64
2024/03/01 01:01:08;;;;;;;28.15;16.00;;;8.20;99.90;;;;;;4944902;29;20427;-64
2024/03/01 01:03:35;;;;;;;25.58;16.50;;;8.20;99.90;;;;;;4939527;29;20058;-64
2024/03/01 01:06:01;;;;;;;30.42;16.88;;;8.20;99.90;;;;;;4937326;29;20165;-64
2024/03/01 01:08:28;;;;;;;27.95;16.58;;;8.20;99.90;;;;;;4942660;29;20058;-64
2024/03/01 01:10:55;;;;;;;29.38;16.40;;;8.20;99.90;;;;;;4943265;29;20056;-64
2024/03/01 01:13:21;;;;;;;29.45;17.58;;;8.20;99.90;;;;;;4938672;29;20567;-64
2024/03/01 01:15:48;;;;;;;28.70;17.42;;;8.20;99.90;;;;;;4941343;29;20054;-64
2024/03/01 01:18:16;;;;;;;27.58;17.40;;;8.20;99.90;;;;;;4938247;29;20055;-64
2024/03/01 01:20:44;;;;;;;30.70;17.33;;;8.20;99.90;;;;;;4941541;29;20510;-64
2024/03/01 01:23:11;;;;;;;29.63;17.40;;;8.20;99.90;;;;;;4938756;29;20039;-64
2024/03/01 01:25:38;;;;;;;30.50;17.92;;;8.20;99.90;;;;;;4939930;29;20075;-64
2024/03/01 01:28:07;;;;;;;28.08;17.08;;;8.10;99.90;;;;;;4937549;29;20048;-64
2024/03/01 01:30:34;;;;;;;32.00;18.50;;;8.10;99.90;;;;;;4935026;29;20570;-64
2024/03/01 01:33:00;;;;;;;27.77;17.77;;;8.10;99.90;;;;;;4935914;29;20134;-64
2024/03/01 01:35:27;;;;;;;29.45;18.88;;;8.10;99.90;;;;;;4936647;29;20091;-64
2024/03/01 01:37:55;;;;;;;29.98;18.63;;;8.10;99.90;;;;;;4939015;29;20043;-64
2024/03/01 01:40:22;;;;;;;27.73;17.30;;;8.10;99.90;;;;;;4937055;29;20138;-64
2024/03/01 01:42:53;;;;;;;29.77;18.25;;;8.10;99.90;;;;;;4936208;28;20044;-64
2024/03/01 01:45:21;;;;;;;29.05;18.38;;;8.10;99.90;;;;;;4943130;29;20047;-64
2024/03/01 01:47:48;;;;;;;30.98;17.92;;;8.10;99.90;;;;;;4939458;29;20136;-64
2024/03/01 01:50:16;;;;;;;30.73;17.17;;;8.10;99.90;;;;;;4941132;29;20058;-67
2024/03/01 01:52:44;;;;;;;32.90;18.42;;;8.10;99.90;;;;;;4927994;29;20119;-64
2024/03/01 01:55:11;;;;;;;31.80;18.08;;;8.10;99.90;;;;;;4937956;29;20047;-64
2024/03/01 01:57:39;;;;;;;28.95;17.63;;;8.10;99.90;;;;;;4942865;29;20065;-64
2024/03/01 02:00:07;;;;;;;28.45;17.10;;;8.10;99.90;;;;;;4940770;29;20039;-64
2024/03/01 02:02:34;;;;;;;31.23;17.67;;;8.10;99.90;;;;;;4939395;29;20488;-64
2024/03/01 02:05:01;;;;;;;31.58;18.48;;;8.20;99.90;;;;;;4943612;29;20047;-64
2024/03/01 02:07:28;;;;;;;31.10;19.05;;;8.20;99.90;;;;;;4938041;29;20051;-64
2024/03/01 02:09:55;;;;;;;30.10;17.58;;;8.20;99.90;;;;;;4935359;29;20143;-64
2024/03/01 02:12:21;;;;;;;30.42;17.92;;;8.20;99.90;;;;;;4940092;29;20078;-64
2024/03/01 02:14:49;;;;;;;28.00;17.83;;;8.20;99.90;;;;;;4937849;29;20123;-64
2024/03/01 02:17:16;;;;;;;25.90;16.83;;;8.30;99.90;;;;;;4935677;29;20051;-64
2024/03/01 02:19:42;;;;;;;25.63;17.17;;;8.30;99.90;;;;;;4936973;29;20051;-64
2024/03/01 02:22:16;;;;;;;25.15;16.60;;;8.30;99.90;;;;;;4944046;29;20144;-64
2024/03/01 02:24:42;;;;;;;26.20;15.80;;;8.40;99.90;;;;;;4935516;29;20498;-64
2024/03/01 02:27:09;;;;;;;24.25;14.65;;;8.40;99.90;;;;;;4943411;29;20138;-64
2024/03/01 02:29:36;;;;;;;19.63;12.73;;;8.40;99.90;;;;;;4934758;29;20130;-64
2024/03/01 02:32:02;;;;;;;19.75;12.27;;;8.40;99.90;;;;;;4941326;29;20046;-64
2024/03/01 02:34:29;;;;;;;20.50;13.18;;;8.50;99.90;;;;;;4935497;29;20437;-64
2024/03/01 02:36:56;;;;;;;19.98;11.77;;;8.50;99.90;;;;;;4936684;29;20100;-64
2024/03/01 02:39:25;;;;;;;21.48;12.73;;;8.60;99.90;;;;;;4946871;29;20043;-64
2024/03/01 02:41:51;;;;;;;19.15;11.57;;;8.60;99.90;;;;;;4938757;29;20473;-64
2024/03/01 02:44:18;;;;;;;16.60;10.65;;;8.60;99.90;;;;;;4935638;29;20053;-64
2024/03/01 02:46:45;;;;;;;20.08;11.82;;;8.60;99.90;;;;;;4942767;29;20580;-64
2024/03/01 02:49:11;;;;;;;17.25;11.32;;;8.60;99.90;;;;;;4940094;29;20560;-64
2024/03/01 02:51:41;;;;;;;17.92;11.52;;;8.60;99.90;;;;;;4940121;29;20058;-64
2024/03/01 02:54:07;;;;;;;16.27;10.70;;;8.70;99.90;;;;;;4937052;29;20050;-64
2024/03/01 02:56:34;;;;;;;18.02;10.43;;;8.70;99.90;;;;;;4935107;29;20823;-64
2024/03/01 02:59:01;;;;;;;18.88;11.98;;;8.70;99.90;;;;;;4938655;29;20048;-64
2024/03/01 03:01:29;;;;;;;17.38;11.13;;;8.70;99.90;;;;;;4939644;29;20420;-64
2024/03/01 03:03:55;;;;;;;14.15;10.50;;;8.70;99.90;;;;;;4935826;29;20408;-64
2024/03/01 03:06:22;;;;;;;15.05;9.00;;;8.80;99.90;;;;;;4938647;29;20062;-64
2024/03/01 03:08:49;;;;;;;12.95;8.40;;;8.90;99.90;;;;;;4936890;29;20468;-64
2024/03/01 03:11:20;;;;;;;13.90;8.00;;;8.90;99.90;;;;;;4940957;29;20055;-64
2024/03/01 03:13:48;;;;;;;15.15;8.85;;;8.90;99.90;;;;;;4942227;29;20547;-64
2024/03/01 03:16:16;;;;;;;13.10;8.57;;;8.90;99.90;;;;;;4927348;29;20055;-64
2024/03/01 03:18:43;;;;;;;13.15;8.27;;;8.90;99.90;;;;;;4938748;29;20448;-64
2024/03/01 03:21:09;;;;;;;12.02;8.13;;;8.90;99.90;;;;;;4943066;29;20052;-64
2024/03/01 03:23:36;;;;;;;23.48;10.95;;;8.90;99.90;;;;;;4942047;29;20055;-64
2024/03/01 03:26:03;;;;;;;17.60;11.25;;;8.90;99.90;;;;;;4939309;29;20140;-64
2024/03/01 03:28:30;;;;;;;17.23;10.82;;;8.90;99.90;;;;;;4937825;28;20051;-64
2024/03/01 03:30:57;;;;;;;15.43;10.20;;;8.80;99.90;;;;;;4942050;29;20052;-64
2024/03/01 03:33:24;;;;;;;12.93;9.43;;;8.80;99.90;;;;;;4945181;29;20213;-64
2024/03/01 03:35:50;;;;;;;15.70;10.30;;;8.80;99.90;;;;;;4938131;29;20047;-65
2024/03/01 03:38:17;;;;;;;15.70;9.88;;;8.90;99.90;;;;;;4943245;29;20047;-64
2024/03/01 03:40:44;;;;;;;18.85;11.00;;;8.90;99.90;;;;;;4936431;29;20110;-64
2024/03/01 03:43:11;;;;;;;18.60;10.38;;;8.90;99.90;;;;;;4937308;29;20075;-64
2024/03/01 03:45:39;;;;;;;18.70;10.48;;;8.90;99.90;;;;;;4939931;29;20066;-64
2024/03/01 03:48:05;;;;;;;18.88;11.63;;;8.90;99.90;;;;;;4942681;29;20530;-64
2024/03/01 03:50:32;;;;;;;19.52;12.48;;;8.90;99.90;;;;;;4938894;29;20518;-64
2024/03/01 03:52:59;;;;;;;20.02;12.45;;;8.80;99.90;;;;;;4940495;29;20084;-64
2024/03/01 03:55:26;;;;;;;18.25;12.18;;;8.80;99.90;;;;;;4938598;29;20137;-64
2024/03/01 03:57:53;;;;;;;20.40;12.75;;;8.80;99.90;;;;;;4937176;29;20054;-64
2024/03/01 04:00:20;;;;;;;20.13;13.13;;;8.70;99.90;;;;;;4941237;29;20142;-64
2024/03/01 04:02:46;;;;;;;17.63;12.55;;;8.70;99.90;;;;;;4938497;29;20059;-64
2024/03/01 04:05:13;;;;;;;17.60;11.88;;;8.60;99.90;;;;;;4942750;29;20050;-64
2024/03/01 04:07:40;;;;;;;21.15;12.82;;;8.60;99.90;;;;;;4939419;29;20496;-64
2024/03/01 04:10:07;;;;;;;21.27;12.50;;;8.60;99.90;;;;;;4936780;29;20047;-64
2024/03/01 04:12:33;;;;;;;16.33;11.75;;;8.60;99.90;;;;;;4938807;29;20051;-65
2024/03/01 04:15:00;;;;;;;16.80;10.60;;;8.60;99.90;;;;;;4937652;29;20070;-65
2024/03/01 04:17:31;;;;;;;;;;;8.50;99.90;;;;;;4938215;29;20059;-64
2024/03/01 04:19:57;;;;;;;17.52;11.32;;;8.50;99.90;;;;;;4939872;29;19926;-64
2024/03/01 04:22:24;;;;;;;15.35;10.55;;;8.50;99.90;;;;;;4942678;29;20099;-64
2024/03/01 04:24:51;;;;;;;18.35;12.23;;;8.60;99.90;;;;;;4936019;29;20538;-65
2024/03/01 04:27:17;;;;;;;23.80;14.38;;;8.60;99.90;;;;;;4940690;28;20047;-65
2024/03/01 04:29:44;;;;;;;21.27;13.93;;;8.60;99.90;;;;;;4939150;29;20047;-64
2024/03/01 04:32:11;;;;;;;18.80;13.10;;;8.50;99.90;;;;;;4942696;28;20236;-65
2024/03/01 04:34:38;;;;;;;19.73;14.35;;;8.60;99.90;;;;;;4942150;29;20129;-65
2024/03/01 04:37:04;;;;;;;23.52;14.43;;;8.50;99.90;;;;;;4941666;29;20184;-65
2024/03/01 04:39:32;;;;;;;21.20;13.57;;;8.50;99.90;;;;;;4941018;29;20130;-65
2024/03/01 04:41:58;;;;;;;18.27;12.07;;;8.50;99.90;;;;;;4937372;29;20416;-65
2024/03/01 04:44:25;;;;;;;24.30;13.77;;;8.50;99.90;;;;;;4940090;29;20051;-65
2024/03/01 04:46:52;;;;;;;18.10;12.05;;;8.50;99.90;;;;;;4938685;29;20520;-65
2024/03/01 04:49:19;;;;;;;20.55;12.15;;;8.50;99.90;;;;;;4940950;29;20666;-65
2024/03/01 04:51:46;;;;;;;19.02;11.65;;;8.50;99.90;;;;;;4939265;29;20763;-65
2024/03/01 04:54:13;;;;;;;20.30;12.23;;;8.50;99.90;;;;;;4941034;29;20098;-65
2024/03/01 04:56:39;;;;;;;19.63;11.13;;;8.50;99.90;;;;;;4938812;29;20445;-65
2024/03/01 04:59:08;;;;;;;14.95;10.15;;;8.50;99.90;;;;;;4942010;29;20079;-65
2024/03/01 05:01:39;;;;;;;17.92;12.00;;;8.50;99.90;;;;;;4942476;29;20050;-65
2024/03/01 05:04:08;;;;;;;20.73;13.32;;;8.50;99.90;;;;;;4939030;29;20714;-65
2024/03/01 05:06:39;;;;;;;19.33;12.33;;;8.50;99.90;;;;;;4941603;29;20186;-63
2024/03/01 05:09:07;;;;;;;19.48;11.88;;;8.50;99.90;;;;;;4925358;29;20106;-65
2024/03/01 05:11:35;;;;;;;19.83;12.73;;;8.50;99.90;;;;;;4937290;29;20122;-65
2024/03/01 05:14:05;;;;;;;20.40;12.32;;;8.50;99.90;;;;;;4937426;29;20123;-65
2024/03/01 05:16:32;;;;;;;20.77;13.10;;;8.50;99.90;;;;;;4939392;29;20050;-65
2024/03/01 05:18:59;;;;;;;20.67;13.18;;;8.60;99.90;;;;;;4936415;29;20103;-65
2024/03/01 05:21:26;;;;;;;17.83;12.07;;;8.60;99.90;;;;;;4940106;29;20534;-65
2024/03/01 05:23:53;;;;;;;20.60;13.80;;;8.60;99.90;;;;;;4939985;29;20044;-65
2024/03/01 05:26:20;;;;;;;21.20;13.75;;;8.60;99.90;;;;;;4936344;29;20467;-65
2024/03/01 05:28:46;;;;;;;23.20;14.25;;;8.60;99.90;;;;;;4935470;29;20055;-65
2024/03/01 05:31:13;;;;;;;22.38;14.05;;;8.60;99.90;;;;;;4939657;29;20076;-65
2024/03/01 05:33:50;;;;;;;21.52;13.27;;;8.60;99.90;;;;;;4938954;29;20115;-65
2024/03/01 05:36:17;;;;;;;17.63;11.82;;;8.60;99.90;;;;;;4941298;29;20404;-65
2024/03/01 05:38:44;;;;;;;18.40;12.23;;;8.60;99.90;;;;;;4934491;29;20098;-65
2024/03/01 05:41:12;;;;;;;19.20;12.98;;;8.60;99.90;;;;;;4939416;28;20050;-65
2024/03/01 05:43:40;;;;;;;19.23;11.23;;;8.60;99.90;;;;;;4934108;29;20075;-65
2024/03/01 05:46:16;;;;;;;15.60;9.85;;;8.60;99.90;;;;;;4940301;29;20047;-65
2024/03/01 05:48:43;;;;;;;19.23;10.32;;;8.60;99.90;;;;;;4935686;29;20082;-65
2024/03/01 05:51:11;;;;;;;13.38;9.75;;;8.60;99.90;;;;;;4941313;29;20058;-65
2024/03/01 05:53:41;;;;;;;14.80;9.38;;;8.60;99.90;;;;;;4937369;29;20059;-65
2024/03/01 05:56:17;;;;;;;15.05;9.82;;;8.60;99.90;;;;;;4940855;29;20044;-68
2024/03/01 05:58:47;;;;;;;16.50;10.25;;;8.70;99.90;;;;;;4937346;29;20052;-65
2024/03/01 06:01:16;;;;;;;14.80;8.75;;;8.70;99.90;;;;;;4940001;29;20653;-65
2024/03/01 06:03:43;;;;;;;13.63;8.90;;;8.70;99.90;;;;;;4941395;28;20481;-65
2024/03/01 06:06:14;;;;;;;15.30;8.95;;;8.70;99.90;;;;;;4938598;29;20311;-65
2024/03/01 06:08:41;;;;;;;15.43;9.63;;;8.70;99.90;;;;;;4931174;29;20536;-65
2024/03/01 06:11:08;;;;;;;17.23;10.18;;;8.70;99.90;;;;;;4932581;29;20071;-65
2024/03/01 06:13:35;;;;;;;13.77;9.55;;;8.70;99.90;;;;;;4932825;29;20142;-65
2024/03/01 06:16:02;;;;;;;13.05;8.65;;;8.70;99.90;;;;;;4941717;29;20539;-65
2024/03/01 06:18:28;;;;;;;16.52;9.48;;;8.70;99.90;;;;;;4938872;29;20051;-65
2024/03/01 06:20:55;;;;;;;13.38;8.95;;;8.70;99.90;;;;;;4940013;29;20047;-65
2024/03/01 06:23:22;;;;;;;16.30;9.65;;;8.70;99.90;;;;;;4939746;29;20047;-66
2024/03/01 06:25:49;;;;;;;13.18;9.07;;;8.70;99.90;;;;;;4936660;29;20086;-65
2024/03/01 06:28:16;;;;;;;16.10;9.57;;;8.80;99.90;;;;;;4923619;29;20071;-65
2024/03/01 06:30:43;;;;;;;16.75;9.98;;;8.80;99.90;;;;;;4937972;29;20047;-65
2024/03/01 06:33:12;;;;;;;14.65;10.18;;;8.70;99.90;;;;;;4942474;29;20106;-65
2024/03/01 06:35:39;;;;;;;14.10;9.90;;;8.70;99.90;;;;;;4939955;29;20404;-65
2024/03/01 06:38:06;;;;;;;17.70;10.75;;;8.70;99.90;;;;;;4942212;29;20091;-65
2024/03/01 06:40:34;;;;;;;18.15;10.10;;;8.70;99.90;;;;;;4938935;29;20079;-65
2024/03/01 06:43:01;;;;;;;16.02;9.82;;;8.70;99.90;;;;;;4939644;29;20072;-65
2024/03/01 06:45:27;;;;;;;15.52;9.30;;;8.70;99.90;;;;;;4940699;29;20130;-63
2024/03/01 06:47:55;;;;;;;14.55;9.30;;;8.70;99.90;;;;;;4933245;29;20067;-62
2024/03/01 06:50:22;;;;;;;14.18;8.50;;;8.70;99.90;;;;;;4934084;29;20071;-65
2024/03/01 06:52:49;;;;;;;12.48;9.13;;;8.70;99.90;;;;;;4935534;29;20059;-63
2024/03/01 06:55:16;;;;;;;15.95;8.93;;;8.70;99.90;;;;;;4939998;28;20512;-64
2024/03/01 06:57:43;;;;;;;14.50;9.25;;;8.60;99.90;;;;;;4931375;29;20052;-65
2024/03/01 07:00:10;;;;;;;15.60;10.05;;;8.60;99.90;;;;;;4937761;29;20143;-63
2024/03/01 07:02:36;;;;;;;24.60;10.85;;;8.70;99.90;;;;;;4936096;29;20075;-61
2024/03/01 07:05:04;;;;;;;14.85;10.07;;;8.70;99.90;;;;;;4940898;29;20127;-63
2024/03/01 07:07:31;;;;;;;14.98;9.63;;;8.70;99.90;;;;;;4942434;28;20062;-65
2024/03/01 07:09:58;;;;;;;15.18;9.93;;;8.70;99.90;;;;;;4937315;29;20428;-65
2024/03/01 07:12:25;;;;;;;16.35;10.02;;;8.70;99.90;;;;;;4941952;29;20055;-64
2024/03/01 07:14:51;;;;;;;16.48;10.73;;;8.70;99.90;;;;;;4939676;29;20531;-63
2024/03/01 07:17:18;;;;;;;15.38;9.88;;;8.70;99.90;;;;;;4939251;29;20075;-64
2024/03/01 07:19:45;;;;;;;17.08;9.77;;;8.80;99.90;;;;;;4939555;29;20052;-63
2024/03/01 07:22:12;;;;;;;14.60;9.77;;;8.80;99.90;;;;;;4940501;29;20054;-63
2024/03/01 07:24:38;;;;;;;16.13;9.77;;;8.80;99.90;;;;;;4938020;29;20427;-62
2024/03/01 07:27:05;;;;;;;17.58;9.25;;;8.80;99.90;;;;;;4942208;29;20043;-59
2024/03/01 07:29:32;;;;;;;14.73;9.00;;;8.80;99.90;;;;;;4936097;29;20055;-58
2024/03/01 07:31:59;;;;;;;14.35;9.63;;;8.80;99.90;;;;;;4936542;29;20673;-61
2024/03/01 07:34:29;;;;;;;17.77;9.20;;;8.80;99.90;;;;;;4939717;29;20107;-64
2024/03/01 07:36:56;;;;;;;13.82;8.63;;;8.90;99.90;;;;;;4942106;28;20132;-60
2024/03/01 07:39:23;;;;;;;13.45;8.45;;;8.90;99.90;;;;;;4917528;29;20050;-60
2024/03/01 07:41:49;;;;;;;13.00;9.15;;;8.90;99.90;;;;;;4940507;29;20079;-61
2024/03/01 07:44:16;;;;;;;16.42;9.43;;;9.00;99.90;;;;;;4939128;28;20055;-65
2024/03/01 07:46:43;;;;;;;16.33;8.27;;;9.00;99.90;;;;;;4939545;29;20054;-64
2024/03/01 07:49:10;;;;;;;15.75;7.90;;;9.00;99.90;;;;;;4941431;28;20544;-61
2024/03/01 07:51:36;;;;;;;11.65;8.15;;;9.10;99.90;;;;;;4943078;29;20070;-63
2024/03/01 07:54:04;;;;;;;11.98;8.02;;;9.10;99.90;;;;;;4951783;28;20431;-63
2024/03/01 07:56:30;;;;;;;12.73;8.55;;;9.10;99.90;;;;;;4935398;29;20394;-62
2024/03/01 07:59:04;;;;;;;11.48;7.80;;;9.10;99.90;;;;;;4933027;29;20138;-61
2024/03/01 08:01:31;;;;;;;11.82;7.88;;;9.20;99.90;;;;;;4936631;29;20055;-61
2024/03/01 08:03:58;;;;;;;11.13;6.80;;;9.30;99.90;;;;;;4929310;29;20039;-62
2024/03/01 08:06:31;;;;;;;9.25;6.55;;;9.30;99.90;;;;;;4924336;29;20052;-61
2024/03/01 08:08:58;;;;;;;9.32;6.45;;;9.30;99.90;;;;;;4927428;29;20055;-61
2024/03/01 08:11:44;;;;;;;9.98;6.45;;;9.30;99.90;;;;;;4927317;29;20086;-61
2024/03/01 08:14:25;;;;;;;9.35;6.53;;;9.40;99.90;;;;;;4927715;29;20473;-61
2024/03/01 08:16:53;;;;;;;8.88;5.65;;;9.50;99.90;;;;;;4929021;29;20043;-61
2024/03/01 08:19:21;;;;;;;8.98;6.32;;;9.70;99.90;;;;;;4931769;29;20047;-62
2024/03/01 08:21:52;;;;;;;11.20;7.18;;;9.70;99.90;;;;;;4928947;29;20771;-62
2024/03/01 08:24:22;;;;;;;10.38;6.82;;;9.70;99.90;;;;;;4936767;29;20074;-63
2024/03/01 08:26:49;;;;;;;8.45;6.18;;;9.80;99.90;;;;;;4937249;29;20055;-64
2024/03/01 08:29:17;;;;;;;10.98;6.75;;;9.90;99.90;;;;;;4932199;29;20051;-60
2024/03/01 08:31:45;;;;;;;8.57;5.65;;;10.00;99.90;;;;;;4934368;29;20096;-62
2024/03/01 08:34:21;;;;;;;9.98;5.72;;;10.10;99.90;;;;;;4933888;29;20079;-63
2024/03/01 08:36:52;;;;;;;13.85;6.97;;;10.20;99.90;;;;;;4927430;29;20502;-62
2024/03/01 08:39:21;;;;;;;9.52;6.70;;;10.30;99.90;;;;;;4937264;29;20088;-60
2024/03/01 08:41:49;;;;;;;6.70;4.93;;;10.30;99.90;;;;;;4932787;29;20052;-55
2024/03/01 08:44:31;;;;;;;6.85;5.00;;;10.40;99.90;;;;;;4939061;29;20055;-61
2024/03/01 08:46:58;;;;;;;9.10;5.28;;;10.40;99.90;;;;;;4937752;29;20099;-62
2024/03/01 08:49:37;;;;;;;8.10;5.93;;;10.50;99.90;;;;;;4936973;29;20066;-60
2024/03/01 08:52:20;;;;;;;7.22;5.13;;;10.70;99.90;;;;;;4938706;29;20048;-59
2024/03/01 08:54:49;;;;;;;6.93;4.95;;;10.80;99.90;;;;;;4935637;29;20082;-60
2024/03/01 08:57:26;;;;;;;7.60;5.40;;;10.80;99.90;;;;;;4936893;29;20173;-62
2024/03/01 08:59:53;;;;;;;7.45;4.75;;;10.90;99.90;;;;;;4932163;29;20047;-60
2024/03/01 09:02:45;;;;;;;6.55;4.28;;;10.90;99.90;;;;;;4932841;29;20059;-61
2024/03/01 09:05:14;;;;;;;5.60;4.03;;;11.00;99.90;;;;;;4933099;29;20070;-61
2024/03/01 09:07:41;;;;;;;5.47;3.92;;;11.10;99.90;;;;;;4931490;29;20047;-60
2024/03/01 09:10:15;;;;;;;5.43;3.75;;;11.10;99.90;;;;;;4932448;29;20050;-61
2024/03/01 09:12:45;;;;;;;4.55;3.42;;;11.10;99.90;;;;;;4935601;29;20064;-62
2024/03/01 09:15:13;;;;;;;5.30;3.63;;;11.10;99.90;;;;;;4933718;29;20123;-60
2024/03/01 09:17:41;;;;;;;4.57;3.40;;;11.20;99.90;;;;;;4937582;29;20120;-59
2024/03/01 09:20:21;;;;;;;3.67;2.80;;;11.30;99.90;;;;;;4932351;29;20108;-61
2024/03/01 09:22:48;;;;;;;;;;;11.40;99.90;;;;;;4938345;29;20080;-61
2024/03/01 09:25:45;;;;;;;4.05;2.47;;;11.50;99.90;;;;;;4931016;29;19945;-60
2024/03/01 09:28:14;;;;;;;3.72;2.97;;;11.60;99.90;;;;;;4933617;29;20050;-61
2024/03/01 09:30:44;;;;;;;3.75;2.60;;;11.70;99.90;;;;;;4937348;29;20330;-59
2024/03/01 09:33:15;;;;;;;3.10;2.22;;;11.60;99.90;;;;;;4930758;29;20056;-62
2024/03/01 09:35:50;;;;;;;2.78;2.05;;;11.60;99.90;;;;;;4929723;29;20058;-62
2024/03/01 09:38:17;;;;;;;2.42;1.90;;;11.70;99.90;;;;;;4928897;29;20051;-60
2024/03/01 09:40:47;;;;;;;3.65;2.03;;;11.60;99.90;;;;;;4939917;29;20416;-60
2024/03/01 09:43:38;;;;;;;3.60;1.90;;;11.50;99.90;;;;;;4937391;29;20056;-63
2024/03/01 09:46:34;;;;;;;2.10;1.80;;;11.40;99.90;;;;;;4933622;29;20431;-61
2024/03/01 09:49:20;;;;;;;3.35;1.70;;;11.30;99.90;;;;;;4928050;29;20057;-61
2024/03/01 09:52:08;;;;;;;3.28;2.03;;;11.20;99.90;;;;;;4933703;29;20119;-63
2024/03/01 09:54:45;;;;;;;2.75;1.98;;;11.20;99.90;;;;;;4936661;29;20055;-63
2024/03/01 09:57:25;;;;;;;2.13;1.73;;;11.10;99.90;;;;;;4936849;29;20079;-63
2024/03/01 10:00:27;;;;;;;2.15;1.30;;;11.10;99.90;;;;;;4929695;29;20460;-64
2024/03/01 10:03:02;;;;;;;2.20;1.52;;;11.00;99.90;;;;;;4933502;29;20069;-62
2024/03/01 10:05:37;;;;;;;2.50;1.90;;;11.10;99.90;;;;;;4935342;29;20054;-64
2024/03/01 10:08:08;;;;;;;2.50;1.63;;;11.00;99.90;;;;;;4931026;29;20499;-63
2024/03/01 10:10:50;;;;;;;1.70;1.48;;;11.00;99.90;;;;;;4935297;29;20147;-63
2024/03/01 10:13:55;;;;;;;3.22;1.92;;;10.90;99.90;;;;;;4914948;28;20666;-60
2024/03/01 10:16:34;;;;;;;2.33;2.10;;;10.80;99.90;;;;;;4934181;28;20343;-60
2024/03/01 10:19:04;;;;;;;2.78;2.00;;;10.60;99.90;;;;;;4949773;28;20049;-61
2024/03/01 10:21:57;;;;;;;2.50;1.95;;;10.40;99.90;;;;;;4944698;28;20653;-60
2024/03/01 10:25:01;;;;;;;2.72;2.30;;;10.30;99.90;;;;;;4946483;28;20055;-62
2024/03/01 10:27:42;;;;;;;3.10;2.75;;;10.30;99.90;;;;;;4851619;29;20061;-61
2024/03/01 10:30:20;;;;;;;4.80;3.47;;;10.20;99.90;;;;;;4938786;28;20047;-63
2024/03/01 10:33:17;;;;;;;3.30;2.90;;;10.00;99.90;;;;;;4951451;28;20062;-64
2024/03/01 10:35:57;;;;;;;5.60;3.78;;;10.00;99.90;;;;;;4945163;28;20508;-64
2024/03/01 10:38:46;;;;;;;5.85;3.55;;;10.00;99.90;;;;;;4947554;28;20055;-62
2024/03/01 10:41:40;;;;;;;4.70;3.42;;;10.10;99.90;;;;;;4946299;28;20137;-63
2024/03/01 10:44:21;;;;;;;5.63;2.88;;;9.90;99.90;;;;;;4945454;28;20078;-60
2024/03/01 10:46:48;;;;;;;4.00;3.05;;;9.90;99.90;;;;;;4945033;28;20054;-60
2024/03/01 10:49:25;;;;;;;5.28;3.38;;;9.80;99.90;;;;;;4949439;28;20051;-61
2024/03/01 10:52:01;;;;;;;3.25;2.67;;;9.90;99.90;;;;;;4948645;28;20146;-60
2024/03/01 10:54:33;;;;;;;4.68;2.30;;;9.90;99.90;;;;;;4947466;28;20150;-62
2024/03/01 10:57:03;;;;;;;4.72;2.30;;;10.00;99.90;;;;;;4947551;28;20452;-63
2024/03/01 10:59:35;;;;;;;3.50;2.58;;;10.20;99.90;;;;;;4948894;28;20078;-63
2024/03/01 11:02:20;;;;;;;3.10;2.40;;;10.60;99.90;;;;;;4948654;28;20054;-63
2024/03/01 11:05:02;;;;;;;2.33;1.92;;;10.90;99.90;;;;;;4947963;28;20760;-63
2024/03/01 11:08:06;;;;;;;1.75;1.40;;;11.20;99.90;;;;;;4992891;23;20063;-63
2024/03/01 11:11:01;;;;;;;4.60;1.73;;;11.30;99.90;;;;;;4910358;29;20590;-63
2024/03/01 11:13:32;;;;;;;2.60;1.40;;;11.50;99.90;;;;;;4929671;29;20055;-63
2024/03/01 11:16:04;;;;;;;1.60;1.42;;;11.60;99.90;;;;;;4929713;29;20043;-63
2024/03/01 11:18:37;;;;;;;2.10;1.35;;;11.60;99.90;;;;;;4931421;29;20073;-60
2024/03/01 11:21:13;;;;;;;3.38;1.30;;;11.60;99.90;;;;;;4932950;29;20062;-60
2024/03/01 11:23:46;;;;;;;2.08;1.42;;;11.70;99.90;;;;;;4929508;29;20519;-61
2024/03/01 11:26:17;;;;;;;2.13;1.40;;;11.70;99.90;;;;;;4930027;29;20468;-60
2024/03/01 11:28:55;;;;;;;2.38;1.30;;;11.80;99.90;;;;;;4932294;29;20397;-61
2024/03/01 11:31:30;;;;;;;2.33;1.38;;;11.70;99.90;;;;;;4933373;29;20051;-61
2024/03/01 11:34:01;;;;;;;1.70;1.20;;;11.70;99.90;;;;;;4933932;29;20048;-61
2024/03/01 11:36:53;;;;;;;1.42;1.20;;;11.70;99.90;;;;;;4938784;28;20057;-59
2024/03/01 11:39:38;;;;;;;1.52;1.42;;;11.80;99.90;;;;;;4944111;29;20040;-61
2024/03/01 11:42:31;;;;;;;1.63;1.40;;;12.00;99.90;;;;;;4941236;29;20708;-59
2024/03/01 11:45:06;;;;;;;1.30;1.10;;;12.20;99.90;;;;;;4929006;29;20111;-61
2024/03/01 11:48:01;;;;;;;1.80;1.23;;;12.20;99.90;;;;;;4933695;29;20062;-61
2024/03/01 11:50:40;;;;;;;2.17;1.48;;;12.30;99.90;;;;;;4941338;29;20105;-61
2024/03/01 11:53:39;;;;;;;2.30;1.40;;;12.40;99.90;;;;;;4935730;29;20052;-61
2024/03/01 11:56:24;;;;;;;1.95;1.40;;;12.40;99.90;;;;;;4935607;29;20508;-61
2024/03/01 11:59:23;;;;;;;1.55;1.25;;;12.50;99.90;;;;;;4933989;29;20058;-60
2024/03/01 12:02:31;;;;;;;1.42;1.20;;;12.30;99.90;;;;;;4934898;29;20233;-60
2024/03/01 12:05:02;;;;;;;1.38;1.20;;;12.40;99.90;;;;;;4915901;29;20186;-60
2024/03/01 12:07:37;;;;;;;2.33;1.27;;;12.50;99.90;;;;;;4923488;29;20075;-59
2024/03/01 12:10:41;;;;;;;2.25;2.00;;;12.30;99.90;;;;;;4925824;29;20051;-61
2024/03/01 12:13:13;;;;;;;1.55;1.30;;;12.30;99.90;;;;;;4943107;29;20083;-57
2024/03/01 12:16:01;;;;;;;4.05;1.30;;;12.10;99.90;;;;;;4943344;29;20055;-60
2024/03/01 12:18:48;;;;;;;1.20;1.08;;;11.90;99.90;;;;;;4946586;28;20050;-63
2024/03/01 12:21:36;;;;;;;1.83;0.90;;;11.80;99.90;;;;;;4941978;29;20461;-61
2024/03/01 12:24:18;;;;;;;1.30;1.10;;;11.90;99.90;;;;;;4941788;29;20060;-61
2024/03/01 12:27:08;;;;;;;2.53;1.30;;;11.80;99.90;;;;;;4939472;29;20143;-61
2024/03/01 12:29:43;;;;;;;2.33;1.60;;;11.90;99.90;;;;;;4929328;29;20067;-61
2024/03/01 12:32:22;;;;;;;2.05;1.17;;;11.90;99.90;;;;;;4919381;29;20055;-61
2024/03/01 12:35:04;;;;;;;2.35;1.50;;;12.10;99.90;;;;;;4936020;29;20097;-61
2024/03/01 12:37:47;;;;;;;2.35;1.42;;;12.10;99.90;;;;;;4939263;29;20059;-59
2024/03/01 12:40:19;;;;;;;2.45;1.40;;;12.10;99.90;;;;;;4940761;29;20538;-60
2024/03/01 12:42:49;;;;;;;2.28;1.30;;;12.10;99.90;;;;;;4932123;29;20047;-63
2024/03/01 12:45:38;;;;;;;4.88;0.90;;;12.10;99.90;;;;;;4930915;29;20051;-63
2024/03/01 12:48:09;;;;;;;1.45;1.13;;;12.20;99.90;;;;;;4925872;29;20079;-62
2024/03/01 12:51:11;;;;;;;1.52;0.88;;;12.40;99.90;;;;;;4934105;29;20073;-62
2024/03/01 12:53:58;;;;;;;1.38;1.08;;;12.40;99.90;;;;;;4935829;29;20481;-62
2024/03/01 12:56:40;;;;;;;2.22;1.30;;;12.50;99.90;;;;;;4933703;29;20087;-61
2024/03/01 12:59:14;;;;;;;2.42;1.38;;;12.50;99.90;;;;;;4935389;29;20055;-61
2024/03/01 13:02:08;;;;;;;2.15;1.13;;;12.60;99.90;;;;;;4928762;29;20449;-62
2024/03/01 13:04:49;;;;;;;3.05;1.42;;;12.70;99.90;;;;;;4932368;29;20047;-61
2024/03/01 13:07:17;;;;;;;1.30;0.90;;;12.80;99.90;;;;;;4934459;29;20055;-62